sensor_id;sensor_type;location;lat;lon;timestamp;P1;durP1;ratioP1;P2;durP2;ratioP2
6426;SDS011;3246;42.664;23.308;2024-02-28T00:00:54;14.13;;;11.83;;
6426;SDS011;3246;42.664;23.308;2024-02-28T00:03:21;22.23;;;12.10;;
6426;SDS011;3246;42.664;23.308;2024-02-28T00:05:49;19.27;;;11.97;;
6426;SDS011;3246;42.664;23.308;2024-02-28T00:08:15;18.43;;;11.37;;
6426;SDS011;3246;42.664;23.308;2024-02-28T00:10:44;20.50;;;12.20;;
6426;SDS011;3246;42.664;23.308;2024-02-28T00:13:11;21.03;;;11.73;;
6426;SDS011;3246;42.664;23.308;2024-02-28T00:15:39;18.27;;;11.07;;
6426;SDS011;3246;42.664;23.308;2024-02-28T00:18:07;15.50;;;10.83;;
6426;SDS011;3246;42.664;23.308;2024-02-28T00:20:33;19.30;;;11.97;;
6426;SDS011;3246;42.664;23.308;2024-02-28T00:23:00;17.37;;;12.77;;
6426;SDS011;3246;42.664;23.308;2024-02-28T00:25:27;22.23;;;13.90;;
6426;SDS011;3246;42.664;23.308;2024-02-28T00:27:54;21.20;;;14.20;;
6426;SDS011;3246;42.664;23.308;2024-02-28T00:30:20;17.50;;;12.83;;
6426;SDS011;3246;42.664;23.308;2024-02-28T00:32:49;17.30;;;12.27;;
6426;SDS011;3246;42.664;23.308;2024-02-28T00:35:15;27.50;;;14.93;;
6426;SDS011;3246;42.664;23.308;2024-02-28T00:37:42;21.53;;;14.53;;
6426;SDS011;3246;42.664;23.308;2024-02-28T00:40:09;27.57;;;16.13;;
6426;SDS011;3246;42.664;23.308;2024-02-28T00:42:36;20.70;;;14.17;;
6426;SDS011;3246;42.664;23.308;2024-02-28T00:45:03;21.00;;;14.97;;
6426;SDS011;3246;42.664;23.308;2024-02-28T00:47:31;26.17;;;16.83;;
6426;SDS011;3246;42.664;23.308;2024-02-28T00:49:59;26.60;;;15.27;;
6426;SDS011;3246;42.664;23.308;2024-02-28T00:52:28;24.77;;;15.23;;
6426;SDS011;3246;42.664;23.308;2024-02-28T00:54:56;20.97;;;14.33;;
6426;SDS011;3246;42.664;23.308;2024-02-28T00:57:23;20.37;;;15.20;;
6426;SDS011;3246;42.664;23.308;2024-02-28T00:59:50;20.93;;;14.50;;
6426;SDS011;3246;42.664;23.308;2024-02-28T01:02:17;23.60;;;15.27;;
6426;SDS011;3246;42.664;23.308;2024-02-28T01:04:43;28.57;;;15.10;;
6426;SDS011;3246;42.664;23.308;2024-02-28T01:07:11;21.40;;;15.07;;
6426;SDS011;3246;42.664;23.308;2024-02-28T01:09:38;24.83;;;15.20;;
6426;SDS011;3246;42.664;23.308;2024-02-28T01:12:05;24.20;;;14.90;;
6426;SDS011;3246;42.664;23.308;2024-02-28T01:14:32;23.30;;;13.97;;
6426;SDS011;3246;42.664;23.308;2024-02-28T01:16:59;21.93;;;14.63;;
6426;SDS011;3246;42.664;23.308;2024-02-28T01:19:26;20.40;;;14.87;;
6426;SDS011;3246;42.664;23.308;2024-02-28T01:21:52;22.57;;;14.63;;
6426;SDS011;3246;42.664;23.308;2024-02-28T01:24:20;21.67;;;14.40;;
6426;SDS011;3246;42.664;23.308;2024-02-28T01:26:48;20.70;;;13.87;;
6426;SDS011;3246;42.664;23.308;2024-02-28T01:29:14;23.20;;;15.50;;
6426;SDS011;3246;42.664;23.308;2024-02-28T01:31:41;21.50;;;14.57;;
6426;SDS011;3246;42.664;23.308;2024-02-28T01:34:08;26.73;;;15.73;;
6426;SDS011;3246;42.664;23.308;2024-02-28T01:36:34;24.73;;;16.17;;
6426;SDS011;3246;42.664;23.308;2024-02-28T01:39:01;33.20;;;16.07;;
6426;SDS011;3246;42.664;23.308;2024-02-28T01:41:29;22.83;;;15.97;;
6426;SDS011;3246;42.664;23.308;2024-02-28T01:43:56;24.87;;;15.47;;
6426;SDS011;3246;42.664;23.308;2024-02-28T01:46:23;25.27;;;16.07;;
6426;SDS011;3246;42.664;23.308;2024-02-28T01:48:52;30.67;;;17.33;;
6426;SDS011;3246;42.664;23.308;2024-02-28T01:51:19;28.00;;;16.63;;
6426;SDS011;3246;42.664;23.308;2024-02-28T01:53:47;24.30;;;16.00;;
6426;SDS011;3246;42.664;23.308;2024-02-28T01:56:16;23.83;;;16.53;;
6426;SDS011;3246;42.664;23.308;2024-02-28T01:58:45;26.50;;;15.87;;
6426;SDS011;3246;42.664;23.308;2024-02-28T02:01:13;22.13;;;15.50;;
6426;SDS011;3246;42.664;23.308;2024-02-28T02:03:40;25.70;;;16.03;;
6426;SDS011;3246;42.664;23.308;2024-02-28T02:06:08;22.53;;;14.47;;
6426;SDS011;3246;42.664;23.308;2024-02-28T02:08:36;24.83;;;14.63;;
6426;SDS011;3246;42.664;23.308;2024-02-28T02:11:04;18.00;;;13.50;;
6426;SDS011;3246;42.664;23.308;2024-02-28T02:13:31;19.93;;;15.73;;
6426;SDS011;3246;42.664;23.308;2024-02-28T02:15:59;23.30;;;16.00;;
6426;SDS011;3246;42.664;23.308;2024-02-28T02:18:26;19.70;;;14.93;;
6426;SDS011;3246;42.664;23.308;2024-02-28T02:20:58;21.10;;;12.80;;
6426;SDS011;3246;42.664;23.308;2024-02-28T02:23:31;23.73;;;14.30;;
6426;SDS011;3246;42.664;23.308;2024-02-28T02:25:57;25.60;;;14.83;;
6426;SDS011;3246;42.664;23.308;2024-02-28T02:28:24;21.87;;;14.80;;
6426;SDS011;3246;42.664;23.308;2024-02-28T02:30:51;18.27;;;13.47;;
6426;SDS011;3246;42.664;23.308;2024-02-28T02:33:18;23.57;;;15.17;;
6426;SDS011;3246;42.664;23.308;2024-02-28T02:35:44;18.20;;;13.90;;
6426;SDS011;3246;42.664;23.308;2024-02-28T02:38:11;23.43;;;16.20;;
6426;SDS011;3246;42.664;23.308;2024-02-28T02:40:39;19.93;;;15.43;;
6426;SDS011;3246;42.664;23.308;2024-02-28T02:43:06;19.57;;;14.00;;
6426;SDS011;3246;42.664;23.308;2024-02-28T02:45:33;21.57;;;15.43;;
6426;SDS011;3246;42.664;23.308;2024-02-28T02:48:00;19.10;;;14.70;;
6426;SDS011;3246;42.664;23.308;2024-02-28T02:50:27;24.20;;;16.30;;
6426;SDS011;3246;42.664;23.308;2024-02-28T02:52:53;16.93;;;14.87;;
6426;SDS011;3246;42.664;23.308;2024-02-28T02:55:20;30.37;;;16.23;;
6426;SDS011;3246;42.664;23.308;2024-02-28T02:57:48;25.87;;;16.03;;
6426;SDS011;3246;42.664;23.308;2024-02-28T03:00:15;26.07;;;16.50;;
6426;SDS011;3246;42.664;23.308;2024-02-28T03:02:42;29.40;;;17.10;;
6426;SDS011;3246;42.664;23.308;2024-02-28T03:05:09;24.37;;;15.03;;
6426;SDS011;3246;42.664;23.308;2024-02-28T03:07:36;19.80;;;13.80;;
6426;SDS011;3246;42.664;23.308;2024-02-28T03:10:03;20.00;;;15.43;;
6426;SDS011;3246;42.664;23.308;2024-02-28T03:12:30;21.03;;;14.77;;
6426;SDS011;3246;42.664;23.308;2024-02-28T03:14:58;25.20;;;16.27;;
6426;SDS011;3246;42.664;23.308;2024-02-28T03:17:25;29.67;;;16.50;;
6426;SDS011;3246;42.664;23.308;2024-02-28T03:19:52;21.63;;;13.93;;
6426;SDS011;3246;42.664;23.308;2024-02-28T03:22:18;24.27;;;16.03;;
6426;SDS011;3246;42.664;23.308;2024-02-28T03:24:45;28.63;;;15.87;;
6426;SDS011;3246;42.664;23.308;2024-02-28T03:27:13;27.00;;;15.70;;
6426;SDS011;3246;42.664;23.308;2024-02-28T03:29:40;18.90;;;14.87;;
6426;SDS011;3246;42.664;23.308;2024-02-28T03:32:08;19.50;;;14.50;;
6426;SDS011;3246;42.664;23.308;2024-02-28T03:34:35;21.70;;;15.17;;
6426;SDS011;3246;42.664;23.308;2024-02-28T03:37:02;21.00;;;13.23;;
6426;SDS011;3246;42.664;23.308;2024-02-28T03:39:29;22.10;;;14.90;;
6426;SDS011;3246;42.664;23.308;2024-02-28T03:41:55;24.63;;;14.60;;
6426;SDS011;3246;42.664;23.308;2024-02-28T03:44:22;23.63;;;13.70;;
6426;SDS011;3246;42.664;23.308;2024-02-28T03:46:50;24.00;;;15.57;;
6426;SDS011;3246;42.664;23.308;2024-02-28T03:49:19;27.60;;;15.03;;
6426;SDS011;3246;42.664;23.308;2024-02-28T03:51:45;25.03;;;15.93;;
6426;SDS011;3246;42.664;23.308;2024-02-28T03:54:12;28.03;;;16.83;;
6426;SDS011;3246;42.664;23.308;2024-02-28T03:56:39;24.77;;;17.17;;
6426;SDS011;3246;42.664;23.308;2024-02-28T03:59:06;26.67;;;17.03;;
6426;SDS011;3246;42.664;23.308;2024-02-28T04:01:32;23.10;;;15.93;;
6426;SDS011;3246;42.664;23.308;2024-02-28T04:03:59;22.93;;;16.13;;
6426;SDS011;3246;42.664;23.308;2024-02-28T04:06:28;23.70;;;15.90;;
6426;SDS011;3246;42.664;23.308;2024-02-28T04:08:56;22.50;;;15.17;;
6426;SDS011;3246;42.664;23.308;2024-02-28T04:11:22;29.33;;;17.20;;
6426;SDS011;3246;42.664;23.308;2024-02-28T04:13:49;27.57;;;17.73;;
6426;SDS011;3246;42.664;23.308;2024-02-28T04:16:16;26.67;;;16.60;;
6426;SDS011;3246;42.664;23.308;2024-02-28T04:18:43;20.93;;;14.90;;
6426;SDS011;3246;42.664;23.308;2024-02-28T04:21:09;28.20;;;17.27;;
6426;SDS011;3246;42.664;23.308;2024-02-28T04:23:38;25.13;;;17.13;;
6426;SDS011;3246;42.664;23.308;2024-02-28T04:26:06;26.63;;;18.40;;
6426;SDS011;3246;42.664;23.308;2024-02-28T04:28:33;27.67;;;17.77;;
6426;SDS011;3246;42.664;23.308;2024-02-28T04:31:00;28.17;;;19.07;;
6426;SDS011;3246;42.664;23.308;2024-02-28T04:33:27;33.87;;;19.83;;
6426;SDS011;3246;42.664;23.308;2024-02-28T04:35:53;29.23;;;18.60;;
6426;SDS011;3246;42.664;23.308;2024-02-28T04:38:20;29.63;;;18.90;;
6426;SDS011;3246;42.664;23.308;2024-02-28T04:40:48;20.63;;;16.07;;
6426;SDS011;3246;42.664;23.308;2024-02-28T04:43:16;29.90;;;18.27;;
6426;SDS011;3246;42.664;23.308;2024-02-28T04:45:42;24.53;;;17.60;;
6426;SDS011;3246;42.664;23.308;2024-02-28T04:48:09;33.50;;;18.33;;
6426;SDS011;3246;42.664;23.308;2024-02-28T04:50:36;33.97;;;19.80;;
6426;SDS011;3246;42.664;23.308;2024-02-28T04:53:03;31.07;;;19.50;;
6426;SDS011;3246;42.664;23.308;2024-02-28T04:55:30;30.93;;;18.93;;
6426;SDS011;3246;42.664;23.308;2024-02-28T04:57:58;34.30;;;19.87;;
6426;SDS011;3246;42.664;23.308;2024-02-28T05:00:25;27.87;;;17.47;;
6426;SDS011;3246;42.664;23.308;2024-02-28T05:02:52;32.30;;;18.10;;
6426;SDS011;3246;42.664;23.308;2024-02-28T05:05:19;28.33;;;18.93;;
6426;SDS011;3246;42.664;23.308;2024-02-28T05:07:46;31.00;;;19.67;;
6426;SDS011;3246;42.664;23.308;2024-02-28T05:10:12;32.07;;;19.97;;
6426;SDS011;3246;42.664;23.308;2024-02-28T05:12:39;30.30;;;19.67;;
6426;SDS011;3246;42.664;23.308;2024-02-28T05:15:08;27.17;;;18.53;;
6426;SDS011;3246;42.664;23.308;2024-02-28T05:17:35;30.57;;;19.63;;
6426;SDS011;3246;42.664;23.308;2024-02-28T05:20:02;28.43;;;18.77;;
6426;SDS011;3246;42.664;23.308;2024-02-28T05:22:28;30.83;;;19.37;;
6426;SDS011;3246;42.664;23.308;2024-02-28T05:24:54;29.27;;;19.83;;
6426;SDS011;3246;42.664;23.308;2024-02-28T05:27:21;35.03;;;19.77;;
6426;SDS011;3246;42.664;23.308;2024-02-28T05:29:48;30.63;;;18.57;;
6426;SDS011;3246;42.664;23.308;2024-02-28T05:32:16;28.27;;;21.97;;
6426;SDS011;3246;42.664;23.308;2024-02-28T05:34:43;29.13;;;20.07;;
6426;SDS011;3246;42.664;23.308;2024-02-28T05:37:10;35.60;;;22.13;;
6426;SDS011;3246;42.664;23.308;2024-02-28T05:39:37;32.03;;;20.60;;
6426;SDS011;3246;42.664;23.308;2024-02-28T05:42:04;38.13;;;22.13;;
6426;SDS011;3246;42.664;23.308;2024-02-28T05:44:31;40.20;;;20.23;;
6426;SDS011;3246;42.664;23.308;2024-02-28T05:46:59;35.23;;;20.13;;
6426;SDS011;3246;42.664;23.308;2024-02-28T05:49:27;31.90;;;21.30;;
6426;SDS011;3246;42.664;23.308;2024-02-28T05:51:54;33.07;;;21.97;;
6426;SDS011;3246;42.664;23.308;2024-02-28T05:54:22;30.40;;;20.97;;
6426;SDS011;3246;42.664;23.308;2024-02-28T05:56:49;31.10;;;21.47;;
6426;SDS011;3246;42.664;23.308;2024-02-28T05:59:17;36.50;;;19.00;;
6426;SDS011;3246;42.664;23.308;2024-02-28T06:01:44;28.23;;;19.57;;
6426;SDS011;3246;42.664;23.308;2024-02-28T06:04:11;39.47;;;20.13;;
6426;SDS011;3246;42.664;23.308;2024-02-28T06:06:40;29.57;;;21.27;;
6426;SDS011;3246;42.664;23.308;2024-02-28T06:09:07;30.70;;;20.00;;
6426;SDS011;3246;42.664;23.308;2024-02-28T06:11:34;28.43;;;18.63;;
6426;SDS011;3246;42.664;23.308;2024-02-28T06:14:01;22.57;;;17.53;;
6426;SDS011;3246;42.664;23.308;2024-02-28T06:16:29;33.13;;;22.57;;
6426;SDS011;3246;42.664;23.308;2024-02-28T06:18:56;35.23;;;21.33;;
6426;SDS011;3246;42.664;23.308;2024-02-28T06:21:23;33.53;;;21.67;;
6426;SDS011;3246;42.664;23.308;2024-02-28T06:23:51;32.80;;;21.53;;
6426;SDS011;3246;42.664;23.308;2024-02-28T06:26:18;36.70;;;23.53;;
6426;SDS011;3246;42.664;23.308;2024-02-28T06:28:46;36.43;;;21.67;;
6426;SDS011;3246;42.664;23.308;2024-02-28T06:31:14;35.00;;;22.17;;
6426;SDS011;3246;42.664;23.308;2024-02-28T06:33:41;29.93;;;22.53;;
6426;SDS011;3246;42.664;23.308;2024-02-28T06:36:08;32.73;;;21.77;;
6426;SDS011;3246;42.664;23.308;2024-02-28T06:38:34;34.67;;;21.40;;
6426;SDS011;3246;42.664;23.308;2024-02-28T06:41:03;35.57;;;22.07;;
6426;SDS011;3246;42.664;23.308;2024-02-28T06:43:32;33.13;;;21.13;;
6426;SDS011;3246;42.664;23.308;2024-02-28T06:46:00;43.10;;;21.20;;
6426;SDS011;3246;42.664;23.308;2024-02-28T06:48:27;35.30;;;20.97;;
6426;SDS011;3246;42.664;23.308;2024-02-28T06:50:54;33.73;;;20.57;;
6426;SDS011;3246;42.664;23.308;2024-02-28T06:53:21;33.40;;;20.77;;
6426;SDS011;3246;42.664;23.308;2024-02-28T06:55:48;32.33;;;21.00;;
6426;SDS011;3246;42.664;23.308;2024-02-28T06:58:16;42.83;;;21.87;;
6426;SDS011;3246;42.664;23.308;2024-02-28T07:00:43;27.57;;;19.87;;
6426;SDS011;3246;42.664;23.308;2024-02-28T07:03:10;41.23;;;20.40;;
6426;SDS011;3246;42.664;23.308;2024-02-28T07:05:37;28.57;;;19.03;;
6426;SDS011;3246;42.664;23.308;2024-02-28T07:08:04;24.63;;;17.67;;
6426;SDS011;3246;42.664;23.308;2024-02-28T07:10:31;30.47;;;16.80;;
6426;SDS011;3246;42.664;23.308;2024-02-28T07:12:59;26.37;;;17.70;;
6426;SDS011;3246;42.664;23.308;2024-02-28T07:15:27;27.03;;;19.10;;
6426;SDS011;3246;42.664;23.308;2024-02-28T07:17:54;27.03;;;19.27;;
6426;SDS011;3246;42.664;23.308;2024-02-28T07:20:20;27.23;;;17.97;;
6426;SDS011;3246;42.664;23.308;2024-02-28T07:22:47;33.63;;;18.40;;
6426;SDS011;3246;42.664;23.308;2024-02-28T07:25:14;27.17;;;17.83;;
6426;SDS011;3246;42.664;23.308;2024-02-28T07:27:41;30.23;;;18.53;;
6426;SDS011;3246;42.664;23.308;2024-02-28T07:30:08;29.43;;;17.87;;
6426;SDS011;3246;42.664;23.308;2024-02-28T07:32:36;27.33;;;17.73;;
6426;SDS011;3246;42.664;23.308;2024-02-28T07:35:03;22.17;;;16.60;;
6426;SDS011;3246;42.664;23.308;2024-02-28T07:37:31;29.47;;;17.83;;
6426;SDS011;3246;42.664;23.308;2024-02-28T07:39:57;38.07;;;19.37;;
6426;SDS011;3246;42.664;23.308;2024-02-28T07:42:24;32.37;;;17.80;;
6426;SDS011;3246;42.664;23.308;2024-02-28T07:44:52;30.43;;;19.10;;
6426;SDS011;3246;42.664;23.308;2024-02-28T07:47:22;28.10;;;18.43;;
6426;SDS011;3246;42.664;23.308;2024-02-28T07:49:51;27.10;;;17.17;;
6426;SDS011;3246;42.664;23.308;2024-02-28T07:52:18;30.90;;;17.87;;
6426;SDS011;3246;42.664;23.308;2024-02-28T07:54:45;25.17;;;17.47;;
6426;SDS011;3246;42.664;23.308;2024-02-28T07:57:12;34.43;;;20.70;;
6426;SDS011;3246;42.664;23.308;2024-02-28T07:59:40;27.47;;;18.57;;
6426;SDS011;3246;42.664;23.308;2024-02-28T08:02:07;28.80;;;17.97;;
6426;SDS011;3246;42.664;23.308;2024-02-28T08:04:34;27.63;;;17.23;;
6426;SDS011;3246;42.664;23.308;2024-02-28T08:07:03;24.37;;;17.13;;
6426;SDS011;3246;42.664;23.308;2024-02-28T08:09:30;22.87;;;17.33;;
6426;SDS011;3246;42.664;23.308;2024-02-28T08:11:57;26.07;;;18.00;;
6426;SDS011;3246;42.664;23.308;2024-02-28T08:14:24;26.77;;;17.60;;
6426;SDS011;3246;42.664;23.308;2024-02-28T08:16:51;24.85;;;17.80;;
6426;SDS011;3246;42.664;23.308;2024-02-28T08:19:17;28.17;;;18.65;;
6426;SDS011;3246;42.664;23.308;2024-02-28T08:21:44;27.25;;;18.10;;
6426;SDS011;3246;42.664;23.308;2024-02-28T08:24:13;23.50;;;18.40;;
6426;SDS011;3246;42.664;23.308;2024-02-28T08:26:40;28.60;;;18.83;;
6426;SDS011;3246;42.664;23.308;2024-02-28T08:29:07;29.23;;;20.30;;
6426;SDS011;3246;42.664;23.308;2024-02-28T08:31:39;27.45;;;19.42;;
6426;SDS011;3246;42.664;23.308;2024-02-28T08:34:06;31.13;;;19.88;;
6426;SDS011;3246;42.664;23.308;2024-02-28T08:36:33;28.40;;;18.95;;
6426;SDS011;3246;42.664;23.308;2024-02-28T08:39:00;27.88;;;19.35;;
6426;SDS011;3246;42.664;23.308;2024-02-28T08:41:31;34.00;;;20.17;;
6426;SDS011;3246;42.664;23.308;2024-02-28T08:43:58;33.10;;;19.42;;
6426;SDS011;3246;42.664;23.308;2024-02-28T08:46:25;30.30;;;19.35;;
6426;SDS011;3246;42.664;23.308;2024-02-28T08:48:52;30.77;;;21.85;;
6426;SDS011;3246;42.664;23.308;2024-02-28T08:51:18;36.08;;;19.90;;
6426;SDS011;3246;42.664;23.308;2024-02-28T08:53:45;37.05;;;20.52;;
6426;SDS011;3246;42.664;23.308;2024-02-28T08:56:12;36.78;;;21.95;;
6426;SDS011;3246;42.664;23.308;2024-02-28T08:58:40;31.70;;;20.83;;
6426;SDS011;3246;42.664;23.308;2024-02-28T09:01:09;34.22;;;21.63;;
6426;SDS011;3246;42.664;23.308;2024-02-28T09:03:40;29.13;;;21.33;;
6426;SDS011;3246;42.664;23.308;2024-02-28T09:06:06;26.35;;;19.08;;
6426;SDS011;3246;42.664;23.308;2024-02-28T09:08:33;28.10;;;17.92;;
6426;SDS011;3246;42.664;23.308;2024-02-28T09:11:00;36.97;;;20.83;;
6426;SDS011;3246;42.664;23.308;2024-02-28T09:13:27;30.98;;;20.00;;
6426;SDS011;3246;42.664;23.308;2024-02-28T09:15:56;35.72;;;19.58;;
6426;SDS011;3246;42.664;23.308;2024-02-28T09:18:23;31.23;;;18.92;;
6426;SDS011;3246;42.664;23.308;2024-02-28T09:20:50;25.73;;;18.95;;
6426;SDS011;3246;42.664;23.308;2024-02-28T09:23:17;31.13;;;19.05;;
6426;SDS011;3246;42.664;23.308;2024-02-28T09:25:44;29.33;;;18.70;;
6426;SDS011;3246;42.664;23.308;2024-02-28T09:28:11;29.13;;;18.63;;
6426;SDS011;3246;42.664;23.308;2024-02-28T09:30:41;28.83;;;16.20;;
6426;SDS011;3246;42.664;23.308;2024-02-28T09:33:09;24.85;;;17.00;;
6426;SDS011;3246;42.664;23.308;2024-02-28T09:35:37;26.60;;;17.50;;
6426;SDS011;3246;42.664;23.308;2024-02-28T09:38:04;25.08;;;15.75;;
6426;SDS011;3246;42.664;23.308;2024-02-28T09:40:30;32.05;;;18.40;;
6426;SDS011;3246;42.664;23.308;2024-02-28T09:43:02;24.15;;;16.95;;
6426;SDS011;3246;42.664;23.308;2024-02-28T09:45:29;34.25;;;17.75;;
6426;SDS011;3246;42.664;23.308;2024-02-28T09:47:57;32.05;;;17.45;;
6426;SDS011;3246;42.664;23.308;2024-02-28T09:50:27;26.88;;;16.85;;
6426;SDS011;3246;42.664;23.308;2024-02-28T09:52:54;25.20;;;16.67;;
6426;SDS011;3246;42.664;23.308;2024-02-28T09:55:21;32.00;;;18.25;;
6426;SDS011;3246;42.664;23.308;2024-02-28T09:57:48;31.92;;;17.17;;
6426;SDS011;3246;42.664;23.308;2024-02-28T10:00:17;21.80;;;15.48;;
6426;SDS011;3246;42.664;23.308;2024-02-28T10:02:46;23.63;;;14.77;;
6426;SDS011;3246;42.664;23.308;2024-02-28T10:05:14;21.75;;;15.52;;
6426;SDS011;3246;42.664;23.308;2024-02-28T10:07:45;23.55;;;15.00;;
6426;SDS011;3246;42.664;23.308;2024-02-28T10:10:12;28.58;;;16.85;;
6426;SDS011;3246;42.664;23.308;2024-02-28T10:12:42;23.85;;;14.73;;
6426;SDS011;3246;42.664;23.308;2024-02-28T10:15:09;21.75;;;14.15;;
6426;SDS011;3246;42.664;23.308;2024-02-28T10:17:37;25.10;;;13.38;;
6426;SDS011;3246;42.664;23.308;2024-02-28T10:20:04;23.13;;;14.35;;
6426;SDS011;3246;42.664;23.308;2024-02-28T10:22:35;19.77;;;13.48;;
6426;SDS011;3246;42.664;23.308;2024-02-28T10:25:03;25.67;;;14.80;;
6426;SDS011;3246;42.664;23.308;2024-02-28T10:27:31;22.23;;;13.60;;
6426;SDS011;3246;42.664;23.308;2024-02-28T10:29:59;17.67;;;12.60;;
6426;SDS011;3246;42.664;23.308;2024-02-28T10:32:26;19.92;;;12.50;;
6426;SDS011;3246;42.664;23.308;2024-02-28T10:34:53;22.70;;;12.77;;
6426;SDS011;3246;42.664;23.308;2024-02-28T10:37:21;26.00;;;11.48;;
6426;SDS011;3246;42.664;23.308;2024-02-28T10:39:48;19.05;;;12.65;;
6426;SDS011;3246;42.664;23.308;2024-02-28T10:42:19;27.50;;;14.05;;
6426;SDS011;3246;42.664;23.308;2024-02-28T10:44:49;21.00;;;14.40;;
6426;SDS011;3246;42.664;23.308;2024-02-28T10:47:17;18.92;;;14.65;;
6426;SDS011;3246;42.664;23.308;2024-02-28T10:49:44;19.63;;;13.63;;
6426;SDS011;3246;42.664;23.308;2024-02-28T10:52:11;15.75;;;12.40;;
6426;SDS011;3246;42.664;23.308;2024-02-28T10:54:39;24.42;;;13.63;;
6426;SDS011;3246;42.664;23.308;2024-02-28T10:57:08;19.95;;;13.38;;
6426;SDS011;3246;42.664;23.308;2024-02-28T10:59:40;19.88;;;13.18;;
6426;SDS011;3246;42.664;23.308;2024-02-28T11:02:09;18.83;;;12.60;;
6426;SDS011;3246;42.664;23.308;2024-02-28T11:04:38;19.42;;;12.82;;
6426;SDS011;3246;42.664;23.308;2024-02-28T11:07:05;12.63;;;10.25;;
6426;SDS011;3246;42.664;23.308;2024-02-28T11:09:33;15.60;;;10.52;;
6426;SDS011;3246;42.664;23.308;2024-02-28T11:12:00;11.50;;;9.15;;
6426;SDS011;3246;42.664;23.308;2024-02-28T11:14:31;16.50;;;9.63;;
6426;SDS011;3246;42.664;23.308;2024-02-28T11:17:02;12.13;;;8.88;;
6426;SDS011;3246;42.664;23.308;2024-02-28T11:19:31;11.65;;;6.05;;
6426;SDS011;3246;42.664;23.308;2024-02-28T11:22:00;11.68;;;6.60;;
6426;SDS011;3246;42.664;23.308;2024-02-28T11:24:30;13.68;;;6.90;;
6426;SDS011;3246;42.664;23.308;2024-02-28T11:26:58;14.90;;;8.00;;
6426;SDS011;3246;42.664;23.308;2024-02-28T11:29:25;12.35;;;7.70;;
6426;SDS011;3246;42.664;23.308;2024-02-28T11:31:53;11.55;;;7.15;;
6426;SDS011;3246;42.664;23.308;2024-02-28T11:34:22;7.78;;;6.50;;
6426;SDS011;3246;42.664;23.308;2024-02-28T11:36:49;12.02;;;7.40;;
6426;SDS011;3246;42.664;23.308;2024-02-28T11:39:18;10.60;;;6.88;;
6426;SDS011;3246;42.664;23.308;2024-02-28T11:41:46;11.27;;;6.97;;
6426;SDS011;3246;42.664;23.308;2024-02-28T11:44:14;6.97;;;5.55;;
6426;SDS011;3246;42.664;23.308;2024-02-28T11:46:43;7.30;;;5.05;;
6426;SDS011;3246;42.664;23.308;2024-02-28T11:49:11;8.90;;;4.97;;
6426;SDS011;3246;42.664;23.308;2024-02-28T11:51:40;6.72;;;4.88;;
6426;SDS011;3246;42.664;23.308;2024-02-28T11:54:08;6.65;;;5.10;;
6426;SDS011;3246;42.664;23.308;2024-02-28T11:56:36;7.10;;;5.40;;
6426;SDS011;3246;42.664;23.308;2024-02-28T11:59:03;8.90;;;5.68;;
6426;SDS011;3246;42.664;23.308;2024-02-28T12:01:36;9.05;;;7.25;;
6426;SDS011;3246;42.664;23.308;2024-02-28T12:04:04;10.20;;;7.03;;
6426;SDS011;3246;42.664;23.308;2024-02-28T12:06:32;9.50;;;6.32;;
6426;SDS011;3246;42.664;23.308;2024-02-28T12:09:03;8.40;;;6.03;;
6426;SDS011;3246;42.664;23.308;2024-02-28T12:11:30;9.02;;;6.47;;
6426;SDS011;3246;42.664;23.308;2024-02-28T12:13:57;9.98;;;7.00;;
6426;SDS011;3246;42.664;23.308;2024-02-28T12:16:25;13.68;;;6.45;;
6426;SDS011;3246;42.664;23.308;2024-02-28T12:18:52;7.53;;;6.35;;
6426;SDS011;3246;42.664;23.308;2024-02-28T12:21:19;9.50;;;6.43;;
6426;SDS011;3246;42.664;23.308;2024-02-28T12:23:46;10.07;;;5.85;;
6426;SDS011;3246;42.664;23.308;2024-02-28T12:26:16;10.40;;;6.10;;
6426;SDS011;3246;42.664;23.308;2024-02-28T12:28:43;10.98;;;6.35;;
6426;SDS011;3246;42.664;23.308;2024-02-28T12:31:10;8.63;;;5.70;;
6426;SDS011;3246;42.664;23.308;2024-02-28T12:33:38;9.80;;;7.07;;
6426;SDS011;3246;42.664;23.308;2024-02-28T12:36:05;9.13;;;6.43;;
6426;SDS011;3246;42.664;23.308;2024-02-28T12:38:32;7.75;;;6.70;;
6426;SDS011;3246;42.664;23.308;2024-02-28T12:40:59;12.57;;;6.45;;
6426;SDS011;3246;42.664;23.308;2024-02-28T12:43:29;7.35;;;6.13;;
6426;SDS011;3246;42.664;23.308;2024-02-28T12:45:56;9.75;;;6.15;;
6426;SDS011;3246;42.664;23.308;2024-02-28T12:48:23;8.38;;;7.45;;
6426;SDS011;3246;42.664;23.308;2024-02-28T12:50:49;8.10;;;6.00;;
6426;SDS011;3246;42.664;23.308;2024-02-28T12:53:16;8.95;;;6.50;;
6426;SDS011;3246;42.664;23.308;2024-02-28T12:55:43;7.07;;;5.97;;
6426;SDS011;3246;42.664;23.308;2024-02-28T12:58:10;6.68;;;5.30;;
6426;SDS011;3246;42.664;23.308;2024-02-28T13:00:39;5.57;;;4.53;;
6426;SDS011;3246;42.664;23.308;2024-02-28T13:03:06;11.38;;;6.32;;
6426;SDS011;3246;42.664;23.308;2024-02-28T13:05:32;8.82;;;6.47;;
6426;SDS011;3246;42.664;23.308;2024-02-28T13:07:59;7.78;;;6.03;;
6426;SDS011;3246;42.664;23.308;2024-02-28T13:10:26;7.70;;;5.93;;
6426;SDS011;3246;42.664;23.308;2024-02-28T13:12:53;8.30;;;6.75;;
6426;SDS011;3246;42.664;23.308;2024-02-28T13:15:20;10.00;;;6.30;;
6426;SDS011;3246;42.664;23.308;2024-02-28T13:17:48;7.85;;;7.05;;
6426;SDS011;3246;42.664;23.308;2024-02-28T13:20:15;7.72;;;6.28;;
6426;SDS011;3246;42.664;23.308;2024-02-28T13:22:42;8.30;;;6.20;;
6426;SDS011;3246;42.664;23.308;2024-02-28T13:25:11;9.50;;;7.35;;
6426;SDS011;3246;42.664;23.308;2024-02-28T13:27:39;8.23;;;6.30;;
6426;SDS011;3246;42.664;23.308;2024-02-28T13:30:07;8.85;;;6.38;;
6426;SDS011;3246;42.664;23.308;2024-02-28T13:32:34;11.10;;;7.85;;
6426;SDS011;3246;42.664;23.308;2024-02-28T13:35:02;10.50;;;7.85;;
6426;SDS011;3246;42.664;23.308;2024-02-28T13:37:30;14.10;;;8.27;;
6426;SDS011;3246;42.664;23.308;2024-02-28T13:39:58;9.25;;;6.25;;
6426;SDS011;3246;42.664;23.308;2024-02-28T13:42:25;15.57;;;7.45;;
6426;SDS011;3246;42.664;23.308;2024-02-28T13:44:52;8.15;;;6.95;;
6426;SDS011;3246;42.664;23.308;2024-02-28T13:47:19;12.10;;;7.25;;
6426;SDS011;3246;42.664;23.308;2024-02-28T13:49:45;11.50;;;7.85;;
6426;SDS011;3246;42.664;23.308;2024-02-28T13:52:14;9.88;;;6.68;;
6426;SDS011;3246;42.664;23.308;2024-02-28T13:54:42;10.43;;;7.10;;
6426;SDS011;3246;42.664;23.308;2024-02-28T13:57:10;12.68;;;6.60;;
6426;SDS011;3246;42.664;23.308;2024-02-28T13:59:37;7.65;;;5.70;;
6426;SDS011;3246;42.664;23.308;2024-02-28T14:02:04;8.68;;;6.20;;
6426;SDS011;3246;42.664;23.308;2024-02-28T14:04:34;12.95;;;7.25;;
6426;SDS011;3246;42.664;23.308;2024-02-28T14:07:00;11.82;;;6.97;;
6426;SDS011;3246;42.664;23.308;2024-02-28T14:09:29;8.77;;;5.93;;
6426;SDS011;3246;42.664;23.308;2024-02-28T14:11:56;8.02;;;5.80;;
6426;SDS011;3246;42.664;23.308;2024-02-28T14:14:23;6.25;;;5.65;;
6426;SDS011;3246;42.664;23.308;2024-02-28T14:16:50;6.47;;;5.40;;
6426;SDS011;3246;42.664;23.308;2024-02-28T14:19:18;8.98;;;5.43;;
6426;SDS011;3246;42.664;23.308;2024-02-28T14:21:44;9.35;;;6.18;;
6426;SDS011;3246;42.664;23.308;2024-02-28T14:24:11;7.15;;;5.10;;
6426;SDS011;3246;42.664;23.308;2024-02-28T14:26:39;8.43;;;5.88;;
6426;SDS011;3246;42.664;23.308;2024-02-28T14:29:06;9.70;;;5.10;;
6426;SDS011;3246;42.664;23.308;2024-02-28T14:31:33;12.23;;;6.68;;
6426;SDS011;3246;42.664;23.308;2024-02-28T14:34:00;8.88;;;6.70;;
6426;SDS011;3246;42.664;23.308;2024-02-28T14:36:29;15.93;;;5.97;;
6426;SDS011;3246;42.664;23.308;2024-02-28T14:38:57;11.80;;;6.22;;
6426;SDS011;3246;42.664;23.308;2024-02-28T14:41:22;8.35;;;5.50;;